createdAt,value
2023-03-18T00:00:02.104Z,0.00
2023-03-18T00:01:02.084Z,0.00
2023-03-18T00:02:02.064Z,0.00
2023-03-18T00:03:02.117Z,0.00
2023-03-18T00:04:02.079Z,0.00
2023-03-18T00:05:02.021Z,0.00
2023-03-18T00:06:02.036Z,0.00
2023-03-18T00:07:01.996Z,0.00
2023-03-18T00:08:01.987Z,0.00
2023-03-18T00:09:01.974Z,0.00
2023-03-18T00:10:01.957Z,0.00
2023-03-18T00:11:01.946Z,0.00
2023-03-18T00:12:01.942Z,0.00
2023-03-18T00:13:01.924Z,0.00
2023-03-18T00:14:01.899Z,0.00
2023-03-18T00:15:01.896Z,0.00
2023-03-18T00:16:01.927Z,0.00
2023-03-18T00:17:02.010Z,0.00
2023-03-18T00:18:01.861Z,0.00
2023-03-18T00:19:01.835Z,0.00
2023-03-18T00:20:01.829Z,0.00
2023-03-18T00:21:01.816Z,0.00
2023-03-18T00:22:01.847Z,0.00
2023-03-18T00:23:01.783Z,0.00
2023-03-18T00:24:01.775Z,0.00
2023-03-18T00:25:01.749Z,0.00
2023-03-18T00:26:01.754Z,0.00
2023-03-18T00:27:01.721Z,0.00
2023-03-18T00:28:01.718Z,0.00
2023-03-18T00:29:01.700Z,0.00
2023-03-18T00:30:01.694Z,0.00
2023-03-18T00:31:01.726Z,0.00
2023-03-18T00:32:01.662Z,0.00
2023-03-18T00:33:01.791Z,0.00
2023-03-18T00:34:01.637Z,0.00
2023-03-18T00:35:01.620Z,0.00
2023-03-18T00:36:01.656Z,0.00
2023-03-18T00:37:01.592Z,0.00
2023-03-18T00:38:01.605Z,0.00
2023-03-18T00:39:01.565Z,0.00
2023-03-18T00:40:01.559Z,0.00
2023-03-18T00:41:01.675Z,0.00
2023-03-18T00:42:01.521Z,0.00
2023-03-18T00:43:01.527Z,0.00
2023-03-18T00:44:01.498Z,0.00
2023-03-18T00:45:01.486Z,0.00
2023-03-18T00:46:01.473Z,0.00
2023-03-18T00:47:01.621Z,0.00
2023-03-18T00:48:01.468Z,0.00
2023-03-18T00:49:01.431Z,0.00
2023-03-18T00:50:01.420Z,0.00
2023-03-18T00:51:01.398Z,0.00
2023-03-18T00:52:01.397Z,0.00
2023-03-18T00:53:01.373Z,0.00
2023-03-18T00:54:01.391Z,0.00
2023-03-18T00:55:01.343Z,0.00
2023-03-18T00:56:01.343Z,0.00
2023-03-18T00:57:01.723Z,0.00
2023-03-18T00:58:01.314Z,0.00
2023-03-18T00:59:01.296Z,0.00
2023-03-18T01:00:01.280Z,0.00
2023-03-18T01:01:01.335Z,0.00
2023-03-18T01:02:01.314Z,0.00
2023-03-18T01:03:01.245Z,0.00
2023-03-18T01:04:01.246Z,0.00
2023-03-18T01:05:01.217Z,0.00
2023-03-18T01:06:01.209Z,0.00
2023-03-18T01:07:01.182Z,0.00
2023-03-18T01:08:01.169Z,0.00
2023-03-18T01:09:01.159Z,0.00
2023-03-18T01:10:01.188Z,0.00
2023-03-18T01:11:01.130Z,0.00
2023-03-18T01:12:01.123Z,0.00
2023-03-18T01:13:01.109Z,0.00
2023-03-18T01:14:01.176Z,0.00
2023-03-18T01:15:01.101Z,0.00
2023-03-18T01:16:01.116Z,0.00
2023-03-18T01:17:01.059Z,0.00
2023-03-18T01:18:01.045Z,0.00
2023-03-18T01:19:01.030Z,0.00
2023-03-18T01:20:01.010Z,0.00
2023-03-18T01:21:00.999Z,0.00
2023-03-18T01:22:00.991Z,0.00
2023-03-18T01:23:00.970Z,0.00
2023-03-18T01:24:00.996Z,0.00
2023-03-18T01:25:00.954Z,0.00
2023-03-18T01:26:00.956Z,0.00
2023-03-18T01:27:00.917Z,0.00
2023-03-18T01:28:00.909Z,0.00
2023-03-18T01:29:00.895Z,0.00
2023-03-18T01:30:00.878Z,0.00
2023-03-18T01:31:00.859Z,0.00
2023-03-18T01:32:00.905Z,0.00
2023-03-18T01:33:00.982Z,0.00
2023-03-18T01:34:00.822Z,0.00
2023-03-18T01:35:00.854Z,0.00
2023-03-18T01:36:00.880Z,0.00
2023-03-18T01:37:00.790Z,0.00
2023-03-18T01:38:01.848Z,0.00
2023-03-18T01:39:00.767Z,0.00
2023-03-18T01:40:00.769Z,0.00
2023-03-18T01:41:00.740Z,0.00
2023-03-18T01:42:00.845Z,0.00
2023-03-18T01:43:00.700Z,0.00
2023-03-18T01:44:00.698Z,0.00
2023-03-18T01:45:00.672Z,0.00
2023-03-18T01:46:00.696Z,0.00
2023-03-18T01:47:00.644Z,0.00
2023-03-18T01:48:00.624Z,0.00
2023-03-18T01:49:00.612Z,0.00
2023-03-18T01:50:00.595Z,0.00
2023-03-18T01:51:00.592Z,0.00
2023-03-18T01:52:00.577Z,0.00
2023-03-18T01:53:00.569Z,0.00
2023-03-18T01:54:00.549Z,0.00
2023-03-18T01:55:00.558Z,0.00
2023-03-18T01:56:00.520Z,0.00
2023-03-18T01:57:00.513Z,0.00
2023-03-18T01:58:00.572Z,0.00
2023-03-18T01:59:00.481Z,0.00
2023-03-18T02:00:00.472Z,0.00
2023-03-18T02:01:00.466Z,0.00
2023-03-18T02:02:00.435Z,0.00
2023-03-18T02:03:00.428Z,0.00
2023-03-18T02:04:00.414Z,0.00
2023-03-18T02:05:00.395Z,0.00
2023-03-18T02:06:00.682Z,0.00
2023-03-18T02:07:00.370Z,0.00
2023-03-18T02:08:00.350Z,0.00
2023-03-18T02:09:00.346Z,0.00
2023-03-18T02:10:00.328Z,0.00
2023-03-18T02:11:00.314Z,0.00
2023-03-18T02:12:00.298Z,0.00
2023-03-18T02:13:00.289Z,0.00
2023-03-18T02:14:00.313Z,0.00
2023-03-18T02:15:00.264Z,0.00
2023-03-18T02:16:00.250Z,0.00
2023-03-18T02:17:00.294Z,0.00
2023-03-18T02:18:00.227Z,0.00
2023-03-18T02:19:00.211Z,0.00
2023-03-18T02:20:00.195Z,0.00
2023-03-18T02:21:00.248Z,0.00
2023-03-18T02:22:00.166Z,0.00
2023-03-18T02:23:00.156Z,0.00
2023-03-18T02:24:00.164Z,0.00
2023-03-18T02:25:00.328Z,0.00
2023-03-18T02:26:00.136Z,0.00
2023-03-18T02:27:00.151Z,0.00
2023-03-18T02:28:00.116Z,0.00
2023-03-18T02:29:00.074Z,0.00
2023-03-18T02:30:00.132Z,0.00
2023-03-18T02:31:00.170Z,0.00
2023-03-18T02:32:00.038Z,0.00
2023-03-18T02:33:00.075Z,0.00
2023-03-18T02:34:00.031Z,0.00
2023-03-18T02:34:59.994Z,0.00
2023-03-18T02:36:00.043Z,0.00
2023-03-18T02:36:59.956Z,0.00
2023-03-18T02:37:59.963Z,0.00
2023-03-18T02:38:59.933Z,0.00
2023-03-18T02:39:59.923Z,0.00
2023-03-18T02:40:59.937Z,0.00
2023-03-18T02:41:59.908Z,0.00
2023-03-18T02:42:59.886Z,0.00
2023-03-18T02:43:59.887Z,0.00
2023-03-18T02:44:59.877Z,0.00
2023-03-18T02:45:59.900Z,0.00
2023-03-18T02:46:59.827Z,0.00
2023-03-18T02:47:59.810Z,0.00
2023-03-18T02:48:59.808Z,0.00
2023-03-18T02:49:59.792Z,0.00
2023-03-18T02:50:59.782Z,0.00
2023-03-18T02:51:59.753Z,0.00
2023-03-18T02:52:59.745Z,0.00
2023-03-18T02:53:59.729Z,0.00
2023-03-18T02:54:59.739Z,0.00
2023-03-18T02:55:59.709Z,0.00
2023-03-18T02:56:59.696Z,0.00
2023-03-18T02:57:59.679Z,0.00
2023-03-18T02:58:59.674Z,0.00
2023-03-18T02:59:59.650Z,0.00
2023-03-18T03:00:59.644Z,0.00
2023-03-18T03:01:59.653Z,0.00
2023-03-18T03:02:59.750Z,0.00
2023-03-18T03:03:59.601Z,0.00
2023-03-18T03:04:59.584Z,0.00
2023-03-18T03:05:59.577Z,0.00
2023-03-18T03:06:59.557Z,0.00
2023-03-18T03:07:59.555Z,0.00
2023-03-18T03:08:59.530Z,0.00
2023-03-18T03:09:59.619Z,0.00
2023-03-18T03:10:59.556Z,0.00
2023-03-18T03:11:59.496Z,0.00
2023-03-18T03:12:59.478Z,0.00
2023-03-18T03:13:59.465Z,0.00
2023-03-18T03:14:59.448Z,0.00
2023-03-18T03:15:59.521Z,0.00
2023-03-18T03:16:59.416Z,0.00
2023-03-18T03:17:59.431Z,0.00
2023-03-18T03:18:59.394Z,0.00
2023-03-18T03:19:59.382Z,0.00
2023-03-18T03:20:59.368Z,0.00
2023-03-18T03:21:59.357Z,0.00
2023-03-18T03:22:59.540Z,0.00
2023-03-18T03:23:59.329Z,0.00
2023-03-18T03:24:59.312Z,0.00
2023-03-18T03:25:59.302Z,0.00
2023-03-18T03:26:59.293Z,0.00
2023-03-18T03:27:59.269Z,0.00
2023-03-18T03:28:59.255Z,0.00
2023-03-18T03:29:59.239Z,0.00
2023-03-18T03:30:59.265Z,0.00
2023-03-18T03:31:59.216Z,0.00
2023-03-18T03:32:59.288Z,0.00
2023-03-18T03:33:59.280Z,0.00
2023-03-18T03:34:59.176Z,0.00
2023-03-18T03:35:59.221Z,0.00
2023-03-18T03:36:59.148Z,0.00
2023-03-18T03:37:59.142Z,0.00
2023-03-18T03:38:59.125Z,0.00
2023-03-18T03:39:59.104Z,0.00
2023-03-18T03:40:59.103Z,0.00
2023-03-18T03:41:59.080Z,0.00
2023-03-18T03:42:59.065Z,0.00
2023-03-18T03:43:59.057Z,0.00
2023-03-18T03:44:59.042Z,0.00
2023-03-18T03:45:59.387Z,0.00
2023-03-18T03:46:59.016Z,0.00
2023-03-18T03:47:59.004Z,0.00
2023-03-18T03:48:59.041Z,0.00
2023-03-18T03:49:59.001Z,0.00
2023-03-18T03:50:58.972Z,0.00
2023-03-18T03:51:58.945Z,0.00
2023-03-18T03:52:58.928Z,0.00
2023-03-18T03:53:58.917Z,0.00
2023-03-18T03:54:58.903Z,0.00
2023-03-18T03:55:59.350Z,0.00
2023-03-18T03:56:58.881Z,0.00
2023-03-18T03:57:58.865Z,0.00
2023-03-18T03:58:58.849Z,0.00
2023-03-18T03:59:58.842Z,0.00
2023-03-18T04:00:58.832Z,0.00
2023-03-18T04:01:58.821Z,0.00
2023-03-18T04:02:58.846Z,0.00
2023-03-18T04:03:58.887Z,0.00
2023-03-18T04:04:58.771Z,0.00
2023-03-18T04:05:58.778Z,0.00
2023-03-18T04:06:58.740Z,0.00
2023-03-18T04:07:58.723Z,0.00
2023-03-18T04:08:58.716Z,0.00
2023-03-18T04:09:58.705Z,0.00
2023-03-18T04:10:58.684Z,0.00
2023-03-18T04:11:58.677Z,0.00
2023-03-18T04:12:58.664Z,0.00
2023-03-18T04:13:58.656Z,0.00
2023-03-18T04:14:58.629Z,0.00
2023-03-18T04:15:58.665Z,0.00
2023-03-18T04:16:58.605Z,0.00
2023-03-18T04:17:58.593Z,0.00
2023-03-18T04:18:58.578Z,0.00
2023-03-18T04:19:58.565Z,0.00
2023-03-18T04:20:58.554Z,0.00
2023-03-18T04:21:58.560Z,0.00
2023-03-18T04:22:58.532Z,0.00
2023-03-18T04:23:58.512Z,0.00
2023-03-18T04:24:58.501Z,0.00
2023-03-18T04:25:58.485Z,0.00
2023-03-18T04:26:58.464Z,0.00
2023-03-18T04:27:58.452Z,0.00
2023-03-18T04:28:58.441Z,0.00
2023-03-18T04:29:58.773Z,0.00
2023-03-18T04:30:58.413Z,0.00
2023-03-18T04:31:58.648Z,0.00
2023-03-18T04:32:58.422Z,0.00
2023-03-18T04:33:58.372Z,0.00
2023-03-18T04:34:58.360Z,0.00
2023-03-18T04:35:58.444Z,0.00
2023-03-18T04:36:58.333Z,0.00
2023-03-18T04:37:58.344Z,0.00
2023-03-18T04:38:58.320Z,0.00
2023-03-18T04:39:58.301Z,0.00
2023-03-18T04:40:58.476Z,0.00
2023-03-18T04:41:58.285Z,0.00
2023-03-18T04:42:58.242Z,0.00
2023-03-18T04:43:58.237Z,0.00
2023-03-18T04:44:58.230Z,0.00
2023-03-18T04:45:58.212Z,0.00
2023-03-18T04:46:58.282Z,0.00
2023-03-18T04:47:58.180Z,0.00
2023-03-18T04:48:58.163Z,0.00
2023-03-18T04:49:58.154Z,0.00
2023-03-18T04:50:58.163Z,0.00
2023-03-18T04:51:58.122Z,0.00
2023-03-18T04:52:58.109Z,0.00
2023-03-18T04:53:58.118Z,0.00
2023-03-18T04:54:58.086Z,0.00
2023-03-18T04:55:58.087Z,0.00
2023-03-18T04:56:58.099Z,0.00
2023-03-18T04:57:58.050Z,0.00
2023-03-18T04:58:58.040Z,0.00
2023-03-18T04:59:58.068Z,0.00
2023-03-18T05:00:58.026Z,0.00
2023-03-18T05:01:57.989Z,0.00
2023-03-18T05:02:57.976Z,0.00
2023-03-18T05:03:58.158Z,0.00
2023-03-18T05:04:57.941Z,0.00
2023-03-18T05:05:57.930Z,0.00
2023-03-18T05:06:57.920Z,0.00
2023-03-18T05:07:58.114Z,0.00
2023-03-18T05:08:57.887Z,0.00
2023-03-18T05:09:57.899Z,0.00
2023-03-18T05:10:57.859Z,0.00
2023-03-18T05:11:57.852Z,0.00
2023-03-18T05:12:57.840Z,0.00
2023-03-18T05:13:57.830Z,0.00
2023-03-18T05:14:57.809Z,0.00
2023-03-18T05:15:57.791Z,0.00
2023-03-18T05:16:57.774Z,0.00
2023-03-18T05:17:57.765Z,0.00
2023-03-18T05:18:57.755Z,0.00
2023-03-18T05:19:57.742Z,0.00
2023-03-18T05:20:57.729Z,0.00
2023-03-18T05:21:57.712Z,0.00
2023-03-18T05:22:57.695Z,0.00
2023-03-18T05:23:57.682Z,0.00
2023-03-18T05:24:57.672Z,0.00
2023-03-18T05:25:57.685Z,0.00
2023-03-18T05:26:57.662Z,0.00
2023-03-18T05:27:57.633Z,5.62
2023-03-18T05:28:57.617Z,5.62
2023-03-18T05:29:57.598Z,5.62
2023-03-18T05:30:57.581Z,5.62
2023-03-18T05:31:57.627Z,5.62
2023-03-18T05:32:57.590Z,5.62
2023-03-18T05:33:57.539Z,5.62
2023-03-18T05:34:57.526Z,5.62
2023-03-18T05:35:57.550Z,11.25
2023-03-18T05:36:57.511Z,11.25
2023-03-18T05:37:57.505Z,11.25
2023-03-18T05:38:57.479Z,11.25
2023-03-18T05:39:57.462Z,11.25
2023-03-18T05:40:57.447Z,11.25
2023-03-18T05:41:57.461Z,16.88
2023-03-18T05:42:57.473Z,16.88
2023-03-18T05:43:57.403Z,16.88
2023-03-18T05:44:57.386Z,16.88
2023-03-18T05:45:57.406Z,16.88
2023-03-18T05:46:57.357Z,22.50
2023-03-18T05:47:57.379Z,22.50
2023-03-18T05:48:57.436Z,22.50
2023-03-18T05:49:57.322Z,28.12
2023-03-18T05:50:57.660Z,28.12
2023-03-18T05:51:57.295Z,28.12
2023-03-18T05:52:57.294Z,33.75
2023-03-18T05:53:57.317Z,33.75
2023-03-18T05:54:57.258Z,33.75
2023-03-18T05:55:57.242Z,33.75
2023-03-18T05:56:57.226Z,39.38
2023-03-18T05:57:57.244Z,39.38
2023-03-18T05:58:57.213Z,39.38
2023-03-18T05:59:57.192Z,39.38
2023-03-18T06:00:57.178Z,39.38
2023-03-18T06:01:57.230Z,39.38
2023-03-18T06:02:57.182Z,45.00
2023-03-18T06:03:57.156Z,45.00
2023-03-18T06:04:57.130Z,45.00
2023-03-18T06:05:57.112Z,45.00
2023-03-18T06:06:57.120Z,50.62
2023-03-18T06:07:57.116Z,50.62
2023-03-18T06:08:57.067Z,56.25
2023-03-18T06:09:57.054Z,56.25
2023-03-18T06:10:57.034Z,61.88
2023-03-18T06:11:57.024Z,67.50
2023-03-18T06:12:57.012Z,73.12
2023-03-18T06:13:57.027Z,84.38
2023-03-18T06:14:56.980Z,84.38
2023-03-18T06:15:56.975Z,84.38
2023-03-18T06:16:57.083Z,73.12
2023-03-18T06:17:56.950Z,78.75
2023-03-18T06:18:56.932Z,78.75
2023-03-18T06:19:56.919Z,78.75
2023-03-18T06:20:56.913Z,84.38
2023-03-18T06:21:56.898Z,84.38
2023-03-18T06:22:56.882Z,84.38
2023-03-18T06:23:56.863Z,84.38
2023-03-18T06:24:56.850Z,90.00
2023-03-18T06:25:56.902Z,95.62
2023-03-18T06:26:56.826Z,101.25
2023-03-18T06:27:56.810Z,118.12
2023-03-18T06:28:56.796Z,174.38
2023-03-18T06:29:56.807Z,253.12
2023-03-18T06:30:56.872Z,270.00
2023-03-18T06:31:56.747Z,219.38
2023-03-18T06:32:56.843Z,202.50
2023-03-18T06:33:56.734Z,180.00
2023-03-18T06:34:56.715Z,180.00
2023-03-18T06:35:56.723Z,174.38
2023-03-18T06:36:56.686Z,219.38
2023-03-18T06:37:56.670Z,191.25
2023-03-18T06:38:56.664Z,180.00
2023-03-18T06:39:56.649Z,180.00
2023-03-18T06:40:56.630Z,191.25
2023-03-18T06:41:56.635Z,219.38
2023-03-18T06:42:56.805Z,241.88
2023-03-18T06:43:56.590Z,236.25
2023-03-18T06:44:56.579Z,213.75
2023-03-18T06:45:56.713Z,196.88
2023-03-18T06:46:56.547Z,241.88
2023-03-18T06:47:56.550Z,236.25
2023-03-18T06:48:56.519Z,219.38
2023-03-18T06:49:56.508Z,219.38
2023-03-18T06:50:56.492Z,225.00
2023-03-18T06:51:56.488Z,208.12
2023-03-18T06:52:56.469Z,230.62
2023-03-18T06:53:56.458Z,230.62
2023-03-18T06:54:56.454Z,275.62
2023-03-18T06:55:56.423Z,371.25
2023-03-18T06:56:56.418Z,461.25
2023-03-18T06:57:56.400Z,540.00
2023-03-18T06:58:56.390Z,585.00
2023-03-18T06:59:56.368Z,590.62
2023-03-18T07:00:56.478Z,579.38
2023-03-18T07:01:56.415Z,551.25
2023-03-18T07:02:56.336Z,624.38
2023-03-18T07:03:56.321Z,618.75
2023-03-18T07:04:56.312Z,601.88
2023-03-18T07:05:56.311Z,573.75
2023-03-18T07:06:56.426Z,652.50
2023-03-18T07:07:56.562Z,708.75
2023-03-18T07:08:56.254Z,725.62
2023-03-18T07:09:56.234Z,753.75
2023-03-18T07:10:57.673Z,759.38
2023-03-18T07:11:56.203Z,646.88
2023-03-18T07:12:56.192Z,500.62
2023-03-18T07:13:56.178Z,663.75
2023-03-18T07:14:56.163Z,815.62
2023-03-18T07:15:56.229Z,871.88
2023-03-18T07:16:56.145Z,838.12
2023-03-18T07:17:56.148Z,860.62
2023-03-18T07:18:56.112Z,877.50
2023-03-18T07:19:56.101Z,866.25
2023-03-18T07:20:56.089Z,877.50
2023-03-18T07:21:56.080Z,888.75
2023-03-18T07:22:56.074Z,894.38
2023-03-18T07:23:56.043Z,871.88
2023-03-18T07:24:56.105Z,888.75
2023-03-18T07:25:56.038Z,956.25
2023-03-18T07:26:56.004Z,961.88
2023-03-18T07:27:55.982Z,675.00
2023-03-18T07:28:55.970Z,956.25
2023-03-18T07:29:55.959Z,928.12
2023-03-18T07:30:55.954Z,990.00
2023-03-18T07:31:55.927Z,1018.12
2023-03-18T07:32:56.011Z,990.00
2023-03-18T07:33:55.923Z,1001.25
2023-03-18T07:34:55.895Z,1051.88
2023-03-18T07:35:55.933Z,1080.00
2023-03-18T07:36:55.876Z,1051.88
2023-03-18T07:37:55.861Z,1074.38
2023-03-18T07:38:55.837Z,1108.12
2023-03-18T07:39:55.850Z,1108.12
2023-03-18T07:40:55.812Z,1102.50
2023-03-18T07:41:55.797Z,1141.88
2023-03-18T07:42:55.795Z,1153.12
2023-03-18T07:43:55.765Z,1001.25
2023-03-18T07:44:55.753Z,1006.88
2023-03-18T07:45:55.768Z,1136.25
2023-03-18T07:46:55.726Z,1203.75
2023-03-18T07:47:55.710Z,1153.12
2023-03-18T07:48:55.704Z,1158.75
2023-03-18T07:49:55.706Z,1158.75
2023-03-18T07:50:55.676Z,990.00
2023-03-18T07:51:55.661Z,855.00
2023-03-18T07:52:55.649Z,483.75
2023-03-18T07:53:55.643Z,371.25
2023-03-18T07:54:55.626Z,371.25
2023-03-18T07:55:55.617Z,354.38
2023-03-18T07:56:55.725Z,438.75
2023-03-18T07:57:55.597Z,635.62
2023-03-18T07:58:55.569Z,618.75
2023-03-18T07:59:55.564Z,444.38
2023-03-18T08:00:55.541Z,562.50
2023-03-18T08:01:55.541Z,523.12
2023-03-18T08:02:55.540Z,348.75
2023-03-18T08:03:55.637Z,410.62
2023-03-18T08:04:55.607Z,427.50
2023-03-18T08:05:55.495Z,427.50
2023-03-18T08:06:55.467Z,371.25
2023-03-18T08:07:55.443Z,382.50
2023-03-18T08:08:55.463Z,348.75
2023-03-18T08:09:55.446Z,292.50
2023-03-18T08:10:55.401Z,275.62
2023-03-18T08:11:55.385Z,286.88
2023-03-18T08:12:55.377Z,331.88
2023-03-18T08:13:55.366Z,388.12
2023-03-18T08:14:55.357Z,388.12
2023-03-18T08:15:55.370Z,427.50
2023-03-18T08:16:55.370Z,382.50
2023-03-18T08:17:55.560Z,331.88
2023-03-18T08:18:55.298Z,337.50
2023-03-18T08:19:55.442Z,315.00
2023-03-18T08:20:55.274Z,292.50
2023-03-18T08:21:55.278Z,281.25
2023-03-18T08:22:55.245Z,376.88
2023-03-18T08:23:55.227Z,759.38
2023-03-18T08:24:55.216Z,1321.88
2023-03-18T08:25:55.209Z,1485.00
2023-03-18T08:26:55.191Z,1513.12
2023-03-18T08:27:55.199Z,1530.00
2023-03-18T08:28:55.182Z,1541.25
2023-03-18T08:29:55.150Z,1513.12
2023-03-18T08:30:55.141Z,1563.75
2023-03-18T08:31:55.227Z,1614.38
2023-03-18T08:32:55.167Z,1631.25
2023-03-18T08:33:55.086Z,1687.50
2023-03-18T08:34:55.078Z,1653.75
2023-03-18T08:35:55.113Z,1631.25
2023-03-18T08:36:55.062Z,1693.12
2023-03-18T08:37:55.055Z,1698.75
2023-03-18T08:38:55.028Z,1642.50
2023-03-18T08:39:55.024Z,1625.62
2023-03-18T08:40:54.998Z,1653.75
2023-03-18T08:41:54.992Z,1755.00
2023-03-18T08:42:55.013Z,1800.00
2023-03-18T08:43:54.958Z,1833.75
2023-03-18T08:44:55.016Z,1850.62
2023-03-18T08:45:55.017Z,1805.62
2023-03-18T08:46:54.923Z,1760.62
2023-03-18T08:47:54.907Z,1777.50
2023-03-18T08:48:54.893Z,1805.62
2023-03-18T08:49:54.883Z,1738.12
2023-03-18T08:50:54.866Z,1738.12
2023-03-18T08:51:54.860Z,1788.75
2023-03-18T08:52:54.856Z,1788.75
2023-03-18T08:53:54.850Z,1777.50
2023-03-18T08:54:54.815Z,1760.62
2023-03-18T08:55:54.818Z,1839.38
2023-03-18T08:56:54.797Z,1918.12
2023-03-18T08:57:54.782Z,1884.38
2023-03-18T08:58:54.776Z,1833.75
2023-03-18T08:59:54.763Z,1822.50
2023-03-18T09:00:54.816Z,1800.00
2023-03-18T09:01:54.722Z,1850.62
2023-03-18T09:02:54.732Z,1890.00
2023-03-18T09:03:54.779Z,1884.38
2023-03-18T09:04:54.690Z,1816.88
2023-03-18T09:05:54.682Z,1805.62
2023-03-18T09:06:54.668Z,1861.88
2023-03-18T09:07:54.652Z,1884.38
2023-03-18T09:08:54.639Z,1822.50
2023-03-18T09:09:54.645Z,1822.50
2023-03-18T09:10:54.613Z,1861.88
2023-03-18T09:11:54.600Z,1805.62
2023-03-18T09:12:54.622Z,1856.25
2023-03-18T09:13:54.611Z,1912.50
2023-03-18T09:14:54.609Z,1929.38
2023-03-18T09:15:54.558Z,1957.50
2023-03-18T09:16:54.573Z,1895.62
2023-03-18T09:18:10.022Z,1878.75
2023-03-18T09:18:55.528Z,1822.50
2023-03-18T09:19:54.494Z,1822.50
2023-03-18T09:20:54.486Z,1845.00
2023-03-18T09:21:54.662Z,1867.50
2023-03-18T09:22:54.735Z,1873.12
2023-03-18T09:23:54.438Z,1861.88
2023-03-18T09:24:54.442Z,1912.50
2023-03-18T09:25:54.587Z,1996.88
2023-03-18T09:26:54.450Z,2092.50
2023-03-18T09:27:54.683Z,2098.12
2023-03-18T09:28:54.472Z,1951.88
2023-03-18T09:29:54.402Z,1918.12
2023-03-18T09:30:54.647Z,1901.25
2023-03-18T09:31:54.337Z,1867.50
2023-03-18T09:32:54.362Z,1839.38
2023-03-18T09:33:54.314Z,1771.88
2023-03-18T09:34:54.403Z,1760.62
2023-03-18T09:35:54.320Z,1805.62
2023-03-18T09:36:54.272Z,1890.00
2023-03-18T09:37:54.307Z,1968.75
2023-03-18T09:38:54.263Z,1985.62
2023-03-18T09:39:54.230Z,1935.00
2023-03-18T09:40:54.219Z,1906.88
2023-03-18T09:41:54.233Z,1901.25
2023-03-18T09:42:54.191Z,1929.38
2023-03-18T09:43:54.190Z,1906.88
2023-03-18T09:44:54.180Z,1929.38
2023-03-18T09:45:57.059Z,1963.12
2023-03-18T09:46:54.348Z,1996.88
2023-03-18T09:47:54.152Z,2002.50
2023-03-18T09:48:54.128Z,1985.62
2023-03-18T09:49:54.110Z,1996.88
2023-03-18T09:50:54.098Z,1726.88
2023-03-18T09:51:54.084Z,1693.12
2023-03-18T09:52:54.066Z,1597.50
2023-03-18T09:53:54.053Z,1226.25
2023-03-18T09:54:54.044Z,849.38
2023-03-18T09:55:54.031Z,765.00
2023-03-18T09:56:54.018Z,680.62
2023-03-18T09:57:54.175Z,630.00
2023-03-18T09:58:53.995Z,624.38
2023-03-18T09:59:53.983Z,613.12
2023-03-18T10:00:54.017Z,630.00
2023-03-18T10:01:54.005Z,630.00
2023-03-18T10:02:53.964Z,601.88
2023-03-18T10:03:53.986Z,624.38
2023-03-18T10:04:54.019Z,618.75
2023-03-18T10:05:53.902Z,579.38
2023-03-18T10:06:53.895Z,573.75
2023-03-18T10:07:54.029Z,534.38
2023-03-18T10:08:53.872Z,517.50
2023-03-18T10:09:53.861Z,556.88
2023-03-18T10:10:54.098Z,590.62
2023-03-18T10:11:53.836Z,551.25
2023-03-18T10:12:53.815Z,511.88
2023-03-18T10:13:53.823Z,500.62
2023-03-18T10:14:53.791Z,483.75
2023-03-18T10:15:54.132Z,489.38
2023-03-18T10:16:53.765Z,489.38
2023-03-18T10:17:54.122Z,483.75
2023-03-18T10:18:53.742Z,495.00
2023-03-18T10:19:53.928Z,489.38
2023-03-18T10:20:53.721Z,461.25
2023-03-18T10:21:53.702Z,455.62
2023-03-18T10:22:53.688Z,455.62
2023-03-18T10:23:53.674Z,444.38
2023-03-18T10:24:53.668Z,472.50
2023-03-18T10:25:53.656Z,528.75
2023-03-18T10:26:53.637Z,540.00
2023-03-18T10:27:53.624Z,562.50
2023-03-18T10:28:53.612Z,883.12
2023-03-18T10:29:53.621Z,1119.38
2023-03-18T10:30:53.632Z,1271.25
2023-03-18T10:31:53.569Z,1456.88
2023-03-18T10:32:53.633Z,1451.25
2023-03-18T10:33:53.546Z,1417.50
2023-03-18T10:34:53.529Z,1316.25
2023-03-18T10:35:53.583Z,1265.62
2023-03-18T10:36:53.505Z,1411.88
2023-03-18T10:37:53.488Z,1209.38
2023-03-18T10:38:53.490Z,1035.00
2023-03-18T10:39:53.468Z,933.75
2023-03-18T10:40:53.459Z,961.88
2023-03-18T10:41:53.557Z,871.88
2023-03-18T10:42:53.432Z,804.38
2023-03-18T10:43:53.418Z,810.00
2023-03-18T10:44:53.405Z,843.75
2023-03-18T10:45:53.431Z,691.88
2023-03-18T10:46:53.477Z,714.38
2023-03-18T10:47:53.362Z,765.00
2023-03-18T10:48:53.356Z,641.25
2023-03-18T10:49:53.333Z,601.88
2023-03-18T10:50:53.327Z,568.12
2023-03-18T10:51:53.309Z,551.25
2023-03-18T10:52:53.296Z,568.12
2023-03-18T10:53:53.308Z,556.88
2023-03-18T10:54:53.268Z,551.25
2023-03-18T10:55:55.386Z,472.50
2023-03-18T10:56:53.310Z,466.88
2023-03-18T10:57:53.235Z,461.25
2023-03-18T10:58:53.222Z,444.38
2023-03-18T10:59:53.204Z,433.12
2023-03-18T11:00:53.193Z,416.25
2023-03-18T11:01:53.248Z,517.50
2023-03-18T11:02:53.236Z,427.50
2023-03-18T11:03:53.162Z,360.00
2023-03-18T11:04:53.138Z,360.00
2023-03-18T11:05:53.122Z,343.12
2023-03-18T11:06:53.118Z,337.50
2023-03-18T11:07:53.102Z,399.38
2023-03-18T11:08:53.086Z,472.50
2023-03-18T11:09:53.081Z,646.88
2023-03-18T11:10:53.057Z,1170.00
2023-03-18T11:11:53.046Z,1074.38
2023-03-18T11:12:53.033Z,939.38
2023-03-18T11:13:53.098Z,1096.88
2023-03-18T11:14:53.011Z,1023.75
2023-03-18T11:15:53.098Z,1468.12
2023-03-18T11:16:52.984Z,1996.88
2023-03-18T11:17:52.992Z,1411.88
2023-03-18T11:18:52.983Z,736.88
2023-03-18T11:19:52.942Z,579.38
2023-03-18T11:20:52.929Z,568.12
2023-03-18T11:21:52.921Z,1603.12
2023-03-18T11:22:52.899Z,1766.25
2023-03-18T11:23:53.612Z,950.62
2023-03-18T11:24:52.873Z,523.12
2023-03-18T11:25:52.855Z,455.62
2023-03-18T11:26:52.847Z,365.62
2023-03-18T11:27:52.829Z,376.88
2023-03-18T11:28:52.821Z,348.75
2023-03-18T11:29:52.803Z,568.12
2023-03-18T11:30:52.793Z,1350.00
2023-03-18T11:31:52.805Z,444.38
2023-03-18T11:32:52.818Z,922.50
2023-03-18T11:33:52.780Z,1085.62
2023-03-18T11:34:52.740Z,1760.62
2023-03-18T11:35:52.813Z,1215.00
2023-03-18T11:36:52.719Z,1181.25
2023-03-18T11:37:52.700Z,1912.50
2023-03-18T11:38:52.690Z,2064.38
2023-03-18T11:39:57.061Z,2266.88
2023-03-18T11:40:53.690Z,2289.38
2023-03-18T11:41:52.651Z,2255.62
2023-03-18T11:42:52.628Z,2238.75
2023-03-18T11:43:52.622Z,2216.25
2023-03-18T11:44:52.606Z,2233.12
2023-03-18T11:45:52.602Z,2272.50
2023-03-18T11:46:52.631Z,2289.38
2023-03-18T11:47:52.574Z,2328.75
2023-03-18T11:48:52.559Z,2368.12
2023-03-18T11:49:52.570Z,2362.50
2023-03-18T11:50:52.524Z,2328.75
2023-03-18T11:51:52.548Z,2362.50
2023-03-18T11:52:52.494Z,2390.62
2023-03-18T11:53:52.496Z,2390.62
2023-03-18T11:54:52.478Z,2407.50
2023-03-18T11:55:52.468Z,2390.62
2023-03-18T11:56:52.450Z,2390.62
2023-03-18T11:57:52.430Z,2351.25
2023-03-18T11:58:52.419Z,2328.75
2023-03-18T11:59:52.416Z,2328.75
2023-03-18T12:00:52.400Z,2334.38
2023-03-18T12:01:52.701Z,2233.12
2023-03-18T12:02:52.392Z,2126.25
2023-03-18T12:03:52.362Z,2154.38
2023-03-18T12:04:52.426Z,2221.88
2023-03-18T12:05:52.458Z,2176.88
2023-03-18T12:06:52.325Z,2171.25
2023-03-18T12:07:52.307Z,2115.00
2023-03-18T12:08:52.294Z,2053.12
2023-03-18T12:09:52.283Z,2098.12
2023-03-18T12:10:52.269Z,2165.62
2023-03-18T12:11:52.272Z,2278.12
2023-03-18T12:12:52.306Z,2340.00
2023-03-18T12:13:52.237Z,2255.62
2023-03-18T12:14:52.229Z,2289.38
2023-03-18T12:15:52.207Z,2475.00
2023-03-18T12:16:52.309Z,2424.38
2023-03-18T12:17:52.180Z,2233.12
2023-03-18T12:18:52.171Z,2250.00
2023-03-18T12:19:52.159Z,2233.12
2023-03-18T12:20:52.161Z,2233.12
2023-03-18T12:21:52.156Z,2233.12
2023-03-18T12:22:52.122Z,2233.12
2023-03-18T12:23:52.121Z,2148.75
2023-03-18T12:24:52.102Z,2340.00
2023-03-18T12:25:52.093Z,2205.00
2023-03-18T12:26:52.083Z,2385.00
2023-03-18T12:27:52.069Z,2368.12
2023-03-18T12:28:52.055Z,1800.00
2023-03-18T12:29:52.044Z,2289.38
2023-03-18T12:30:52.033Z,2115.00
2023-03-18T12:31:52.107Z,2030.62
2023-03-18T12:32:52.101Z,2030.62
2023-03-18T12:33:51.991Z,2126.25
2023-03-18T12:34:51.983Z,2261.25
2023-03-18T12:35:52.012Z,2345.62
2023-03-18T12:36:51.960Z,2323.12
2023-03-18T12:37:51.966Z,2075.62
2023-03-18T12:38:52.139Z,1856.25
2023-03-18T12:39:51.925Z,1901.25
2023-03-18T12:40:51.919Z,2081.25
2023-03-18T12:41:51.900Z,2148.75
2023-03-18T12:42:51.888Z,2098.12
2023-03-18T12:43:51.868Z,1996.88